sensor_id;sensor_type;location;lat;lon;timestamp;P1;durP1;ratioP1;P2;durP2;ratioP2
33266;SDS011;19638;49.080;11.896;2023-04-24T00:02:59;9.73;;;3.95;;
33266;SDS011;19638;49.080;11.896;2023-04-24T00:07:07;8.20;;;3.65;;
33266;SDS011;19638;49.080;11.896;2023-04-24T00:11:10;8.77;;;4.05;;
33266;SDS011;19638;49.080;11.896;2023-04-24T00:15:13;7.63;;;4.20;;
33266;SDS011;19638;49.080;11.896;2023-04-24T00:19:18;11.05;;;4.72;;
33266;SDS011;19638;49.080;11.896;2023-04-24T00:23:24;7.57;;;4.43;;
33266;SDS011;19638;49.080;11.896;2023-04-24T00:27:30;8.02;;;4.20;;
33266;SDS011;19638;49.080;11.896;2023-04-24T00:31:33;5.97;;;3.90;;
33266;SDS011;19638;49.080;11.896;2023-04-24T00:35:38;9.75;;;4.90;;
33266;SDS011;19638;49.080;11.896;2023-04-24T00:39:44;7.68;;;4.65;;
33266;SDS011;19638;49.080;11.896;2023-04-24T00:43:50;7.20;;;4.20;;
33266;SDS011;19638;49.080;11.896;2023-04-24T00:47:56;10.35;;;4.90;;
33266;SDS011;19638;49.080;11.896;2023-04-24T00:52:03;8.85;;;4.80;;
33266;SDS011;19638;49.080;11.896;2023-04-24T00:56:13;17.45;;;5.90;;
33266;SDS011;19638;49.080;11.896;2023-04-24T01:00:17;14.80;;;5.95;;
33266;SDS011;19638;49.080;11.896;2023-04-24T01:04:23;12.18;;;5.50;;
33266;SDS011;19638;49.080;11.896;2023-04-24T01:08:31;11.25;;;5.32;;
33266;SDS011;19638;49.080;11.896;2023-04-24T01:12:36;10.30;;;5.53;;
33266;SDS011;19638;49.080;11.896;2023-04-24T01:16:44;10.75;;;5.20;;
33266;SDS011;19638;49.080;11.896;2023-04-24T01:20:47;11.77;;;5.57;;
33266;SDS011;19638;49.080;11.896;2023-04-24T01:24:56;17.42;;;5.70;;
33266;SDS011;19638;49.080;11.896;2023-04-24T01:29:02;14.82;;;6.45;;
33266;SDS011;19638;49.080;11.896;2023-04-24T01:33:07;16.15;;;7.15;;
33266;SDS011;19638;49.080;11.896;2023-04-24T01:37:14;12.48;;;6.88;;
33266;SDS011;19638;49.080;11.896;2023-04-24T01:41:19;17.88;;;7.28;;
33266;SDS011;19638;49.080;11.896;2023-04-24T01:45:26;12.43;;;6.15;;
33266;SDS011;19638;49.080;11.896;2023-04-24T01:49:30;16.13;;;6.53;;
33266;SDS011;19638;49.080;11.896;2023-04-24T01:53:40;14.85;;;7.28;;
33266;SDS011;19638;49.080;11.896;2023-04-24T01:57:47;15.35;;;7.43;;
33266;SDS011;19638;49.080;11.896;2023-04-24T02:01:52;18.33;;;7.78;;
33266;SDS011;19638;49.080;11.896;2023-04-24T02:05:55;13.13;;;6.70;;
33266;SDS011;19638;49.080;11.896;2023-04-24T02:09:58;15.90;;;7.55;;
33266;SDS011;19638;49.080;11.896;2023-04-24T02:14:07;19.00;;;8.23;;
33266;SDS011;19638;49.080;11.896;2023-04-24T02:18:13;17.70;;;8.30;;
33266;SDS011;19638;49.080;11.896;2023-04-24T02:22:17;15.77;;;7.75;;
33266;SDS011;19638;49.080;11.896;2023-04-24T02:26:20;24.25;;;7.78;;
33266;SDS011;19638;49.080;11.896;2023-04-24T02:30:24;25.42;;;8.68;;
33266;SDS011;19638;49.080;11.896;2023-04-24T02:34:30;18.85;;;7.22;;
33266;SDS011;19638;49.080;11.896;2023-04-24T02:38:35;20.98;;;7.90;;
33266;SDS011;19638;49.080;11.896;2023-04-24T02:42:38;20.02;;;7.97;;
33266;SDS011;19638;49.080;11.896;2023-04-24T02:46:43;22.48;;;8.70;;
33266;SDS011;19638;49.080;11.896;2023-04-24T02:50:46;26.75;;;8.85;;
33266;SDS011;19638;49.080;11.896;2023-04-24T02:54:49;27.02;;;8.98;;
33266;SDS011;19638;49.080;11.896;2023-04-24T02:58:52;26.55;;;9.63;;
33266;SDS011;19638;49.080;11.896;2023-04-24T03:02:57;28.88;;;9.55;;
33266;SDS011;19638;49.080;11.896;2023-04-24T03:07:00;21.77;;;8.55;;
33266;SDS011;19638;49.080;11.896;2023-04-24T03:11:03;27.80;;;10.15;;
33266;SDS011;19638;49.080;11.896;2023-04-24T03:15:09;31.75;;;10.80;;
33266;SDS011;19638;49.080;11.896;2023-04-24T03:19:13;25.85;;;10.93;;
33266;SDS011;19638;49.080;11.896;2023-04-24T03:23:17;24.58;;;9.35;;
33266;SDS011;19638;49.080;11.896;2023-04-24T03:27:20;27.65;;;9.95;;
33266;SDS011;19638;49.080;11.896;2023-04-24T03:31:23;29.38;;;10.95;;
33266;SDS011;19638;49.080;11.896;2023-04-24T03:35:27;29.45;;;10.60;;
33266;SDS011;19638;49.080;11.896;2023-04-24T03:39:32;27.80;;;10.63;;
33266;SDS011;19638;49.080;11.896;2023-04-24T03:43:38;25.98;;;10.40;;
33266;SDS011;19638;49.080;11.896;2023-04-24T03:47:42;26.73;;;10.55;;
33266;SDS011;19638;49.080;11.896;2023-04-24T03:51:46;18.63;;;9.13;;
33266;SDS011;19638;49.080;11.896;2023-04-24T03:55:49;19.80;;;9.13;;
33266;SDS011;19638;49.080;11.896;2023-04-24T03:59:55;25.20;;;9.40;;
33266;SDS011;19638;49.080;11.896;2023-04-24T04:03:58;16.90;;;8.13;;
33266;SDS011;19638;49.080;11.896;2023-04-24T04:08:05;16.75;;;7.65;;
33266;SDS011;19638;49.080;11.896;2023-04-24T04:12:09;16.50;;;7.70;;
33266;SDS011;19638;49.080;11.896;2023-04-24T04:16:12;18.08;;;7.25;;
33266;SDS011;19638;49.080;11.896;2023-04-24T04:20:18;14.23;;;6.80;;
33266;SDS011;19638;49.080;11.896;2023-04-24T04:24:22;14.70;;;7.35;;
33266;SDS011;19638;49.080;11.896;2023-04-24T04:28:27;14.63;;;7.60;;
33266;SDS011;19638;49.080;11.896;2023-04-24T04:32:34;15.90;;;7.20;;
33266;SDS011;19638;49.080;11.896;2023-04-24T04:36:39;17.33;;;7.47;;
33266;SDS011;19638;49.080;11.896;2023-04-24T04:40:47;11.70;;;6.82;;
33266;SDS011;19638;49.080;11.896;2023-04-24T04:44:50;15.10;;;6.63;;
33266;SDS011;19638;49.080;11.896;2023-04-24T04:48:53;12.60;;;6.30;;
33266;SDS011;19638;49.080;11.896;2023-04-24T04:53:00;14.27;;;6.57;;
33266;SDS011;19638;49.080;11.896;2023-04-24T04:57:07;13.88;;;7.38;;
33266;SDS011;19638;49.080;11.896;2023-04-24T05:01:13;16.25;;;7.20;;
33266;SDS011;19638;49.080;11.896;2023-04-24T05:05:16;13.93;;;7.45;;
33266;SDS011;19638;49.080;11.896;2023-04-24T05:09:20;15.05;;;6.78;;
33266;SDS011;19638;49.080;11.896;2023-04-24T05:13:24;12.80;;;7.40;;
33266;SDS011;19638;49.080;11.896;2023-04-24T05:17:40;13.00;;;7.13;;
33266;SDS011;19638;49.080;11.896;2023-04-24T05:21:45;11.13;;;6.20;;
33266;SDS011;19638;49.080;11.896;2023-04-24T05:25:59;13.38;;;6.32;;
33266;SDS011;19638;49.080;11.896;2023-04-24T05:30:05;14.75;;;7.07;;
33266;SDS011;19638;49.080;11.896;2023-04-24T05:34:11;11.77;;;6.70;;
33266;SDS011;19638;49.080;11.896;2023-04-24T05:38:15;13.02;;;6.90;;
33266;SDS011;19638;49.080;11.896;2023-04-24T05:42:23;12.82;;;6.50;;
33266;SDS011;19638;49.080;11.896;2023-04-24T05:46:30;11.80;;;6.22;;
33266;SDS011;19638;49.080;11.896;2023-04-24T05:50:33;10.50;;;6.07;;
33266;SDS011;19638;49.080;11.896;2023-04-24T05:54:39;11.20;;;6.43;;
33266;SDS011;19638;49.080;11.896;2023-04-24T05:58:42;14.40;;;6.30;;
33266;SDS011;19638;49.080;11.896;2023-04-24T06:02:51;11.15;;;5.88;;
33266;SDS011;19638;49.080;11.896;2023-04-24T06:06:56;12.18;;;6.20;;
33266;SDS011;19638;49.080;11.896;2023-04-24T06:11:02;10.63;;;5.53;;
33266;SDS011;19638;49.080;11.896;2023-04-24T06:15:05;12.30;;;5.95;;
33266;SDS011;19638;49.080;11.896;2023-04-24T06:19:13;6.80;;;4.88;;
33266;SDS011;19638;49.080;11.896;2023-04-24T06:23:18;7.97;;;4.43;;
33266;SDS011;19638;49.080;11.896;2023-04-24T06:27:22;9.55;;;4.47;;
33266;SDS011;19638;49.080;11.896;2023-04-24T06:31:29;7.53;;;3.63;;
33266;SDS011;19638;49.080;11.896;2023-04-24T06:35:39;8.57;;;4.15;;
33266;SDS011;19638;49.080;11.896;2023-04-24T06:39:43;7.78;;;4.68;;
33266;SDS011;19638;49.080;11.896;2023-04-24T06:43:51;4.45;;;3.35;;
33266;SDS011;19638;49.080;11.896;2023-04-24T06:47:55;4.53;;;3.40;;
33266;SDS011;19638;49.080;11.896;2023-04-24T06:52:03;6.35;;;2.95;;
33266;SDS011;19638;49.080;11.896;2023-04-24T06:56:11;3.63;;;2.90;;
33266;SDS011;19638;49.080;11.896;2023-04-24T07:00:17;3.03;;;2.83;;
33266;SDS011;19638;49.080;11.896;2023-04-24T07:04:22;3.20;;;2.70;;
33266;SDS011;19638;49.080;11.896;2023-04-24T07:08:28;4.47;;;2.25;;
33266;SDS011;19638;49.080;11.896;2023-04-24T07:12:32;7.85;;;2.30;;
33266;SDS011;19638;49.080;11.896;2023-04-24T07:16:37;2.78;;;2.58;;
33266;SDS011;19638;49.080;11.896;2023-04-24T07:20:40;2.50;;;2.28;;
33266;SDS011;19638;49.080;11.896;2023-04-24T07:24:52;3.97;;;2.60;;
33266;SDS011;19638;49.080;11.896;2023-04-24T07:28:56;2.25;;;2.15;;
33266;SDS011;19638;49.080;11.896;2023-04-24T07:33:02;2.03;;;1.90;;
33266;SDS011;19638;49.080;11.896;2023-04-24T07:37:05;2.45;;;2.10;;
33266;SDS011;19638;49.080;11.896;2023-04-24T07:41:09;2.30;;;2.10;;
33266;SDS011;19638;49.080;11.896;2023-04-24T07:45:14;7.00;;;2.00;;
33266;SDS011;19638;49.080;11.896;2023-04-24T07:49:20;1.80;;;1.70;;
33266;SDS011;19638;49.080;11.896;2023-04-24T07:53:26;6.13;;;3.20;;
33266;SDS011;19638;49.080;11.896;2023-04-24T07:57:30;1.60;;;1.60;;
33266;SDS011;19638;49.080;11.896;2023-04-24T08:01:33;3.08;;;1.88;;
33266;SDS011;19638;49.080;11.896;2023-04-24T08:05:36;1.90;;;1.67;;
33266;SDS011;19638;49.080;11.896;2023-04-24T08:09:41;1.40;;;1.40;;
33266;SDS011;19638;49.080;11.896;2023-04-24T08:13:50;2.90;;;1.30;;
33266;SDS011;19638;49.080;11.896;2023-04-24T08:17:56;1.83;;;1.40;;
33266;SDS011;19638;49.080;11.896;2023-04-24T08:21:59;1.58;;;1.40;;
33266;SDS011;19638;49.080;11.896;2023-04-24T08:26:05;1.35;;;1.35;;
33266;SDS011;19638;49.080;11.896;2023-04-24T08:30:10;1.50;;;1.40;;
33266;SDS011;19638;49.080;11.896;2023-04-24T08:34:14;1.70;;;1.20;;
33266;SDS011;19638;49.080;11.896;2023-04-24T08:38:20;1.50;;;1.40;;
33266;SDS011;19638;49.080;11.896;2023-04-24T08:42:26;1.27;;;1.27;;
33266;SDS011;19638;49.080;11.896;2023-04-24T08:46:35;1.30;;;1.30;;
33266;SDS011;19638;49.080;11.896;2023-04-24T08:50:39;1.23;;;1.23;;
33266;SDS011;19638;49.080;11.896;2023-04-24T08:54:44;1.42;;;1.35;;
33266;SDS011;19638;49.080;11.896;2023-04-24T08:58:50;1.30;;;1.30;;
33266;SDS011;19638;49.080;11.896;2023-04-24T09:02:55;1.95;;;1.40;;
33266;SDS011;19638;49.080;11.896;2023-04-24T09:07:01;1.48;;;1.48;;
33266;SDS011;19638;49.080;11.896;2023-04-24T09:11:06;1.67;;;1.48;;
33266;SDS011;19638;49.080;11.896;2023-04-24T09:15:10;2.53;;;1.40;;
33266;SDS011;19638;49.080;11.896;2023-04-24T09:19:15;1.58;;;1.58;;
33266;SDS011;19638;49.080;11.896;2023-04-24T09:23:20;2.95;;;1.30;;
33266;SDS011;19638;49.080;11.896;2023-04-24T09:27:23;1.40;;;1.38;;
33266;SDS011;19638;49.080;11.896;2023-04-24T09:31:30;3.20;;;1.67;;
33266;SDS011;19638;49.080;11.896;2023-04-24T09:35:35;1.20;;;1.20;;
33266;SDS011;19638;49.080;11.896;2023-04-24T09:39:38;1.58;;;1.58;;
33266;SDS011;19638;49.080;11.896;2023-04-24T09:43:43;1.58;;;1.45;;
33266;SDS011;19638;49.080;11.896;2023-04-24T09:47:46;1.63;;;1.35;;
33266;SDS011;19638;49.080;11.896;2023-04-24T09:52:03;1.45;;;1.45;;
33266;SDS011;19638;49.080;11.896;2023-04-24T09:56:09;1.77;;;1.40;;
33266;SDS011;19638;49.080;11.896;2023-04-24T10:00:17;1.80;;;1.70;;
33266;SDS011;19638;49.080;11.896;2023-04-24T10:04:26;1.65;;;1.55;;
33266;SDS011;19638;49.080;11.896;2023-04-24T10:08:34;4.00;;;1.80;;
33266;SDS011;19638;49.080;11.896;2023-04-24T10:12:38;2.05;;;1.50;;
33266;SDS011;19638;49.080;11.896;2023-04-24T10:16:42;1.80;;;1.70;;
33266;SDS011;19638;49.080;11.896;2023-04-24T10:20:45;1.55;;;1.45;;
33266;SDS011;19638;49.080;11.896;2023-04-24T10:24:52;2.13;;;1.80;;
33266;SDS011;19638;49.080;11.896;2023-04-24T10:28:57;2.83;;;1.63;;
33266;SDS011;19638;49.080;11.896;2023-04-24T10:33:01;1.70;;;1.60;;
33266;SDS011;19638;49.080;11.896;2023-04-24T10:37:04;1.90;;;1.80;;
33266;SDS011;19638;49.080;11.896;2023-04-24T10:41:16;2.00;;;1.90;;
33266;SDS011;19638;49.080;11.896;2023-04-24T10:45:24;1.92;;;1.83;;
33266;SDS011;19638;49.080;11.896;2023-04-24T10:49:31;1.67;;;1.58;;
33266;SDS011;19638;49.080;11.896;2023-04-24T10:53:35;2.28;;;1.52;;
33266;SDS011;19638;49.080;11.896;2023-04-24T11:02:09;1.77;;;1.67;;
33266;SDS011;19638;49.080;11.896;2023-04-24T11:06:15;2.13;;;1.35;;
33266;SDS011;19638;49.080;11.896;2023-04-24T11:10:25;3.38;;;2.00;;
33266;SDS011;19638;49.080;11.896;2023-04-24T11:14:29;1.67;;;1.58;;
33266;SDS011;19638;49.080;11.896;2023-04-24T11:18:38;1.67;;;1.67;;
33266;SDS011;19638;49.080;11.896;2023-04-24T11:22:46;2.20;;;2.00;;
33266;SDS011;19638;49.080;11.896;2023-04-24T11:26:51;1.80;;;1.70;;
33266;SDS011;19638;49.080;11.896;2023-04-24T11:30:56;1.70;;;1.60;;
33266;SDS011;19638;49.080;11.896;2023-04-24T11:35:01;1.77;;;1.67;;
33266;SDS011;19638;49.080;11.896;2023-04-24T11:39:06;1.80;;;1.70;;
33266;SDS011;19638;49.080;11.896;2023-04-24T11:43:12;1.30;;;1.30;;
33266;SDS011;19638;49.080;11.896;2023-04-24T11:47:18;2.40;;;1.58;;
33266;SDS011;19638;49.080;11.896;2023-04-24T11:51:22;1.90;;;1.80;;
33266;SDS011;19638;49.080;11.896;2023-04-24T11:55:36;1.77;;;1.67;;
33266;SDS011;19638;49.080;11.896;2023-04-24T11:59:39;1.70;;;1.60;;
33266;SDS011;19638;49.080;11.896;2023-04-24T12:03:48;2.92;;;1.85;;
33266;SDS011;19638;49.080;11.896;2023-04-24T12:07:53;2.20;;;2.10;;
33266;SDS011;19638;49.080;11.896;2023-04-24T12:11:58;2.25;;;2.05;;
33266;SDS011;19638;49.080;11.896;2023-04-24T12:16:05;1.98;;;1.88;;
33266;SDS011;19638;49.080;11.896;2023-04-24T12:20:10;1.88;;;1.70;;
33266;SDS011;19638;49.080;11.896;2023-04-24T12:24:18;1.77;;;1.70;;
33266;SDS011;19638;49.080;11.896;2023-04-24T12:28:22;3.13;;;1.70;;
33266;SDS011;19638;49.080;11.896;2023-04-24T12:32:28;1.60;;;1.60;;
33266;SDS011;19638;49.080;11.896;2023-04-24T12:36:32;3.00;;;1.50;;
33266;SDS011;19638;49.080;11.896;2023-04-24T12:40:43;2.85;;;1.05;;
33266;SDS011;19638;49.080;11.896;2023-04-24T12:44:55;1.30;;;1.20;;
33266;SDS011;19638;49.080;11.896;2023-04-24T12:49:00;1.55;;;1.05;;
33266;SDS011;19638;49.080;11.896;2023-04-24T12:53:05;1.50;;;1.40;;
33266;SDS011;19638;49.080;11.896;2023-04-24T12:57:15;1.27;;;1.23;;
33266;SDS011;19638;49.080;11.896;2023-04-24T13:01:20;2.90;;;1.50;;
33266;SDS011;19638;49.080;11.896;2023-04-24T13:05:24;1.50;;;1.40;;
33266;SDS011;19638;49.080;11.896;2023-04-24T13:09:30;1.48;;;1.38;;
33266;SDS011;19638;49.080;11.896;2023-04-24T13:13:36;1.75;;;1.50;;
33266;SDS011;19638;49.080;11.896;2023-04-24T13:17:50;1.40;;;1.30;;
33266;SDS011;19638;49.080;11.896;2023-04-24T13:21:53;1.40;;;1.30;;
33266;SDS011;19638;49.080;11.896;2023-04-24T13:26:01;1.40;;;1.40;;
33266;SDS011;19638;49.080;11.896;2023-04-24T13:30:06;1.83;;;1.60;;
33266;SDS011;19638;49.080;11.896;2023-04-24T13:34:10;1.67;;;1.50;;
33266;SDS011;19638;49.080;11.896;2023-04-24T13:38:15;1.42;;;1.40;;
33266;SDS011;19638;49.080;11.896;2023-04-24T13:42:21;1.60;;;1.50;;
33266;SDS011;19638;49.080;11.896;2023-04-24T13:46:29;1.70;;;1.40;;
33266;SDS011;19638;49.080;11.896;2023-04-24T13:50:35;2.35;;;1.60;;
33266;SDS011;19638;49.080;11.896;2023-04-24T13:54:38;1.50;;;1.48;;
33266;SDS011;19638;49.080;11.896;2023-04-24T13:58:44;2.72;;;1.67;;
33266;SDS011;19638;49.080;11.896;2023-04-24T14:02:47;1.63;;;1.52;;
33266;SDS011;19638;49.080;11.896;2023-04-24T14:06:53;1.90;;;1.80;;
33266;SDS011;19638;49.080;11.896;2023-04-24T14:10:58;3.50;;;3.17;;
33266;SDS011;19638;49.080;11.896;2023-04-24T14:15:10;5.05;;;3.63;;
33266;SDS011;19638;49.080;11.896;2023-04-24T14:19:14;3.05;;;2.20;;
33266;SDS011;19638;49.080;11.896;2023-04-24T14:23:19;8.38;;;5.25;;
33266;SDS011;19638;49.080;11.896;2023-04-24T14:27:22;2.53;;;2.30;;
33266;SDS011;19638;49.080;11.896;2023-04-24T14:31:28;2.85;;;1.92;;
33266;SDS011;19638;49.080;11.896;2023-04-24T14:35:33;2.35;;;1.80;;
33266;SDS011;19638;49.080;11.896;2023-04-24T14:39:36;1.77;;;1.67;;
33266;SDS011;19638;49.080;11.896;2023-04-24T14:43:39;1.92;;;1.80;;
33266;SDS011;19638;49.080;11.896;2023-04-24T14:47:45;2.03;;;1.50;;
33266;SDS011;19638;49.080;11.896;2023-04-24T14:51:49;1.90;;;1.80;;
33266;SDS011;19638;49.080;11.896;2023-04-24T14:55:52;2.33;;;2.20;;
33266;SDS011;19638;49.080;11.896;2023-04-24T15:00:01;1.77;;;1.60;;
33266;SDS011;19638;49.080;11.896;2023-04-24T15:04:09;2.05;;;1.80;;
33266;SDS011;19638;49.080;11.896;2023-04-24T15:08:12;1.98;;;1.88;;
33266;SDS011;19638;49.080;11.896;2023-04-24T15:12:17;2.60;;;1.52;;
33266;SDS011;19638;49.080;11.896;2023-04-24T15:16:21;2.38;;;2.10;;
33266;SDS011;19638;49.080;11.896;2023-04-24T15:20:27;3.95;;;1.83;;
33266;SDS011;19638;49.080;11.896;2023-04-24T15:24:30;2.47;;;2.03;;
33266;SDS011;19638;49.080;11.896;2023-04-24T15:28:34;2.00;;;1.90;;
33266;SDS011;19638;49.080;11.896;2023-04-24T15:32:37;2.03;;;1.92;;
33266;SDS011;19638;49.080;11.896;2023-04-24T15:36:42;2.60;;;1.77;;
33266;SDS011;19638;49.080;11.896;2023-04-24T15:40:45;1.50;;;1.50;;
33266;SDS011;19638;49.080;11.896;2023-04-24T15:44:49;1.75;;;1.75;;
33266;SDS011;19638;49.080;11.896;2023-04-24T15:48:52;4.15;;;1.77;;
33266;SDS011;19638;49.080;11.896;2023-04-24T15:52:57;1.98;;;1.70;;
33266;SDS011;19638;49.080;11.896;2023-04-24T15:57:02;1.85;;;1.77;;
33266;SDS011;19638;49.080;11.896;2023-04-24T16:01:08;1.80;;;1.65;;
33266;SDS011;19638;49.080;11.896;2023-04-24T16:05:11;1.77;;;1.67;;
33266;SDS011;19638;49.080;11.896;2023-04-24T16:09:15;1.70;;;1.60;;
33266;SDS011;19638;49.080;11.896;2023-04-24T16:13:18;1.83;;;1.70;;
33266;SDS011;19638;49.080;11.896;2023-04-24T16:17:27;2.67;;;2.17;;
33266;SDS011;19638;49.080;11.896;2023-04-24T16:21:30;1.83;;;1.73;;
33266;SDS011;19638;49.080;11.896;2023-04-24T16:25:34;2.38;;;2.17;;
33266;SDS011;19638;49.080;11.896;2023-04-24T16:29:40;2.35;;;1.80;;
33266;SDS011;19638;49.080;11.896;2023-04-24T16:33:46;1.77;;;1.67;;
33266;SDS011;19638;49.080;11.896;2023-04-24T16:37:53;1.70;;;1.60;;
33266;SDS011;19638;49.080;11.896;2023-04-24T16:41:58;1.90;;;1.80;;
33266;SDS011;19638;49.080;11.896;2023-04-24T16:46:02;2.08;;;1.98;;
33266;SDS011;19638;49.080;11.896;2023-04-24T16:50:05;2.65;;;2.20;;
33266;SDS011;19638;49.080;11.896;2023-04-24T16:54:10;2.15;;;1.95;;
33266;SDS011;19638;49.080;11.896;2023-04-24T16:58:14;2.28;;;2.03;;
33266;SDS011;19638;49.080;11.896;2023-04-24T17:02:23;3.03;;;2.30;;
33266;SDS011;19638;49.080;11.896;2023-04-24T17:06:29;2.45;;;1.98;;
33266;SDS011;19638;49.080;11.896;2023-04-24T17:10:33;2.00;;;1.90;;
33266;SDS011;19638;49.080;11.896;2023-04-24T17:14:37;2.58;;;2.38;;
33266;SDS011;19638;49.080;11.896;2023-04-24T17:18:40;1.65;;;1.65;;
33266;SDS011;19638;49.080;11.896;2023-04-24T17:22:45;1.70;;;1.60;;
33266;SDS011;19638;49.080;11.896;2023-04-24T17:26:51;2.45;;;2.25;;
33266;SDS011;19638;49.080;11.896;2023-04-24T17:31:03;2.40;;;1.90;;
33266;SDS011;19638;49.080;11.896;2023-04-24T17:35:12;3.17;;;2.13;;
33266;SDS011;19638;49.080;11.896;2023-04-24T17:39:17;1.98;;;1.80;;
33266;SDS011;19638;49.080;11.896;2023-04-24T17:43:22;2.30;;;2.20;;
33266;SDS011;19638;49.080;11.896;2023-04-24T17:47:28;3.10;;;2.13;;
33266;SDS011;19638;49.080;11.896;2023-04-24T17:51:31;4.40;;;2.20;;
33266;SDS011;19638;49.080;11.896;2023-04-24T17:55:38;3.28;;;2.38;;
33266;SDS011;19638;49.080;11.896;2023-04-24T17:59:44;3.95;;;2.42;;
33266;SDS011;19638;49.080;11.896;2023-04-24T18:03:50;3.55;;;2.40;;
33266;SDS011;19638;49.080;11.896;2023-04-24T18:07:55;3.50;;;2.40;;
33266;SDS011;19638;49.080;11.896;2023-04-24T18:12:03;2.50;;;2.40;;
33266;SDS011;19638;49.080;11.896;2023-04-24T18:16:08;4.45;;;2.55;;
33266;SDS011;19638;49.080;11.896;2023-04-24T18:20:13;2.95;;;2.50;;
33266;SDS011;19638;49.080;11.896;2023-04-24T18:24:17;4.03;;;2.60;;
33266;SDS011;19638;49.080;11.896;2023-04-24T18:28:28;2.65;;;2.45;;
33266;SDS011;19638;49.080;11.896;2023-04-24T18:32:35;4.22;;;2.42;;
33266;SDS011;19638;49.080;11.896;2023-04-24T18:36:39;2.67;;;2.47;;
33266;SDS011;19638;49.080;11.896;2023-04-24T18:40:43;2.83;;;2.63;;
33266;SDS011;19638;49.080;11.896;2023-04-24T18:44:50;3.03;;;2.83;;
33266;SDS011;19638;49.080;11.896;2023-04-24T18:48:53;4.43;;;2.83;;
33266;SDS011;19638;49.080;11.896;2023-04-24T18:52:58;3.55;;;2.80;;
33266;SDS011;19638;49.080;11.896;2023-04-24T18:57:02;3.45;;;2.80;;
33266;SDS011;19638;49.080;11.896;2023-04-24T19:01:08;3.33;;;2.60;;
33266;SDS011;19638;49.080;11.896;2023-04-24T19:05:11;4.65;;;3.00;;
33266;SDS011;19638;49.080;11.896;2023-04-24T19:09:16;3.67;;;3.10;;
33266;SDS011;19638;49.080;11.896;2023-04-24T19:13:20;3.35;;;3.05;;
33266;SDS011;19638;49.080;11.896;2023-04-24T19:17:26;3.10;;;2.90;;
33266;SDS011;19638;49.080;11.896;2023-04-24T19:21:32;5.60;;;3.05;;
33266;SDS011;19638;49.080;11.896;2023-04-24T19:25:37;3.35;;;3.03;;
33266;SDS011;19638;49.080;11.896;2023-04-24T19:29:40;5.38;;;3.25;;
33266;SDS011;19638;49.080;11.896;2023-04-24T19:33:46;5.75;;;3.33;;
33266;SDS011;19638;49.080;11.896;2023-04-24T19:37:49;4.65;;;2.85;;
33266;SDS011;19638;49.080;11.896;2023-04-24T19:41:54;4.70;;;2.90;;
33266;SDS011;19638;49.080;11.896;2023-04-24T19:46:03;3.50;;;3.15;;
33266;SDS011;19638;49.080;11.896;2023-04-24T19:50:07;7.05;;;3.42;;
33266;SDS011;19638;49.080;11.896;2023-04-24T19:54:10;4.25;;;3.60;;
33266;SDS011;19638;49.080;11.896;2023-04-24T19:58:16;6.53;;;3.33;;
33266;SDS011;19638;49.080;11.896;2023-04-24T20:02:20;3.50;;;3.20;;
33266;SDS011;19638;49.080;11.896;2023-04-24T20:06:26;4.20;;;3.25;;
33266;SDS011;19638;49.080;11.896;2023-04-24T20:10:29;4.78;;;3.28;;
33266;SDS011;19638;49.080;11.896;2023-04-24T20:14:40;3.42;;;3.10;;
33266;SDS011;19638;49.080;11.896;2023-04-24T20:18:43;4.75;;;3.30;;
33266;SDS011;19638;49.080;11.896;2023-04-24T20:22:46;3.72;;;3.30;;
33266;SDS011;19638;49.080;11.896;2023-04-24T20:26:52;3.70;;;3.40;;
33266;SDS011;19638;49.080;11.896;2023-04-24T20:30:57;8.13;;;3.73;;
33266;SDS011;19638;49.080;11.896;2023-04-24T20:35:00;5.85;;;3.67;;
33266;SDS011;19638;49.080;11.896;2023-04-24T20:39:05;6.70;;;3.70;;
33266;SDS011;19638;49.080;11.896;2023-04-24T20:43:16;7.27;;;3.73;;
33266;SDS011;19638;49.080;11.896;2023-04-24T20:47:21;7.60;;;3.53;;
33266;SDS011;19638;49.080;11.896;2023-04-24T20:51:27;4.63;;;3.67;;
33266;SDS011;19638;49.080;11.896;2023-04-24T20:55:30;5.53;;;3.50;;
33266;SDS011;19638;49.080;11.896;2023-04-24T20:59:37;6.80;;;3.63;;
33266;SDS011;19638;49.080;11.896;2023-04-24T21:03:42;4.40;;;3.53;;
33266;SDS011;19638;49.080;11.896;2023-04-24T21:07:58;6.60;;;4.63;;
33266;SDS011;19638;49.080;11.896;2023-04-24T21:12:01;7.13;;;3.57;;
33266;SDS011;19638;49.080;11.896;2023-04-24T21:16:07;5.43;;;4.13;;
33266;SDS011;19638;49.080;11.896;2023-04-24T21:20:12;8.60;;;4.23;;
33266;SDS011;19638;49.080;11.896;2023-04-24T21:24:15;7.23;;;3.97;;
33266;SDS011;19638;49.080;11.896;2023-04-24T21:28:19;4.87;;;4.10;;
33266;SDS011;19638;49.080;11.896;2023-04-24T21:32:22;3.83;;;3.53;;
33266;SDS011;19638;49.080;11.896;2023-04-24T21:36:31;5.80;;;4.03;;
33266;SDS011;19638;49.080;11.896;2023-04-24T21:40:35;7.80;;;4.07;;
33266;SDS011;19638;49.080;11.896;2023-04-24T21:44:38;5.00;;;4.30;;
33266;SDS011;19638;49.080;11.896;2023-04-24T21:48:41;5.27;;;4.20;;
33266;SDS011;19638;49.080;11.896;2023-04-24T21:52:52;6.63;;;4.23;;
33266;SDS011;19638;49.080;11.896;2023-04-24T21:56:57;5.20;;;4.30;;
33266;SDS011;19638;49.080;11.896;2023-04-24T22:01:02;4.83;;;4.07;;
33266;SDS011;19638;49.080;11.896;2023-04-24T22:05:06;6.70;;;4.33;;
33266;SDS011;19638;49.080;11.896;2023-04-24T22:09:20;5.77;;;4.40;;
33266;SDS011;19638;49.080;11.896;2023-04-24T22:13:23;5.97;;;4.20;;
33266;SDS011;19638;49.080;11.896;2023-04-24T22:17:26;6.27;;;4.73;;
33266;SDS011;19638;49.080;11.896;2023-04-24T22:21:29;7.53;;;5.00;;
33266;SDS011;19638;49.080;11.896;2023-04-24T22:25:34;7.90;;;5.60;;
33266;SDS011;19638;49.080;11.896;2023-04-24T22:29:37;8.03;;;5.60;;
33266;SDS011;19638;49.080;11.896;2023-04-24T22:33:42;10.33;;;4.90;;
33266;SDS011;19638;49.080;11.896;2023-04-24T22:37:50;9.10;;;5.50;;
33266;SDS011;19638;49.080;11.896;2023-04-24T22:41:59;10.50;;;5.60;;
33266;SDS011;19638;49.080;11.896;2023-04-24T22:46:03;10.70;;;4.93;;
33266;SDS011;19638;49.080;11.896;2023-04-24T22:50:06;11.88;;;5.20;;
33266;SDS011;19638;49.080;11.896;2023-04-24T22:54:11;8.57;;;5.33;;
33266;SDS011;19638;49.080;11.896;2023-04-24T22:58:18;6.23;;;4.67;;
33266;SDS011;19638;49.080;11.896;2023-04-24T23:02:21;9.70;;;5.30;;
33266;SDS011;19638;49.080;11.896;2023-04-24T23:06:33;8.63;;;5.20;;
33266;SDS011;19638;49.080;11.896;2023-04-24T23:10:40;8.23;;;4.93;;
33266;SDS011;19638;49.080;11.896;2023-04-24T23:14:50;12.63;;;5.67;;
33266;SDS011;19638;49.080;11.896;2023-04-24T23:18:56;9.30;;;6.03;;
33266;SDS011;19638;49.080;11.896;2023-04-24T23:22:59;9.83;;;5.37;;
33266;SDS011;19638;49.080;11.896;2023-04-24T23:27:02;9.90;;;5.37;;
33266;SDS011;19638;49.080;11.896;2023-04-24T23:31:07;8.10;;;5.00;;
33266;SDS011;19638;49.080;11.896;2023-04-24T23:35:10;7.80;;;5.10;;
33266;SDS011;19638;49.080;11.896;2023-04-24T23:39:15;10.27;;;5.00;;
33266;SDS011;19638;49.080;11.896;2023-04-24T23:43:18;12.03;;;5.90;;
33266;SDS011;19638;49.080;11.896;2023-04-24T23:47:25;13.47;;;5.00;;
33266;SDS011;19638;49.080;11.896;2023-04-24T23:51:29;11.80;;;5.60;;
33266;SDS011;19638;49.080;11.896;2023-04-24T23:55:34;12.63;;;5.60;;
33266;SDS011;19638;49.080;11.896;2023-04-24T23:59:37;11.80;;;5.40;;
